Terminal Aerodrome Forecast
Issued by NWS Sioux Falls, SD

Home | Current Version | Previous Version | Graphics & Text | Print | Product List | Glossary On
Versions: 1 2 3 4 5 6 7 8 9 10 11 12 13 14 15 16
385
FTUS43 KFSD 261728
TAFHON
TAF
KHON 261728Z 2618/2718 19010KT P6SM VCTS BKN060CB
     FM262000 23009KT P6SM BKN150
     FM262300 12008KT P6SM SCT150
     FM270300 14005KT P6SM BKN150 PROB30 2703/2706 4SM TSRA OVC040CB
     FM271500 02005KT P6SM BKN040=

USA.gov is the U.S. government's official web portal to all federal, state and local government web resources and services.